createdAt,value
2023-04-02T03:59:04.563Z,50.97
2023-04-02T04:00:04.552Z,51.07
2023-04-02T04:01:04.500Z,50.59
2023-04-02T04:02:04.536Z,50.40
2023-04-02T04:03:04.479Z,50.40
2023-04-02T04:04:04.529Z,50.40
2023-04-02T04:05:04.493Z,50.49
2023-04-02T04:06:04.444Z,50.87
2023-04-02T04:07:04.450Z,50.68
2023-04-02T04:08:04.480Z,50.78
2023-04-02T04:09:04.437Z,51.17
2023-04-02T04:10:04.428Z,50.90
2023-04-02T04:11:04.437Z,50.87
2023-04-02T04:12:04.419Z,51.09
2023-04-02T04:13:04.466Z,51.29
2023-04-02T04:14:04.417Z,51.19
2023-04-02T04:15:04.410Z,51.19
2023-04-02T04:16:04.401Z,51.09
2023-04-02T04:17:04.474Z,51.09
2023-04-02T04:18:04.482Z,51.19
2023-04-02T04:19:04.379Z,51.09
2023-04-02T04:20:04.398Z,51.19
2023-04-02T04:21:04.373Z,51.09
2023-04-02T04:22:04.373Z,51.19
2023-04-02T04:23:04.366Z,51.09
2023-04-02T04:24:04.362Z,51.09
2023-04-02T04:25:04.355Z,51.19
2023-04-02T04:26:04.374Z,51.19
2023-04-02T04:27:04.480Z,51.19
2023-04-02T04:28:04.351Z,51.19
2023-04-02T04:29:04.346Z,51.19
2023-04-02T04:30:04.351Z,50.90
2023-04-02T04:31:04.356Z,51.19
2023-04-02T04:32:04.348Z,51.19
2023-04-02T04:33:04.353Z,51.09
2023-04-02T04:34:04.319Z,51.09
2023-04-02T04:35:04.316Z,51.19
2023-04-02T04:36:04.334Z,51.29
2023-04-02T04:37:04.309Z,50.99
2023-04-02T04:38:04.315Z,50.99
2023-04-02T04:39:04.309Z,50.99
2023-04-02T04:40:04.321Z,50.81
2023-04-02T04:41:04.284Z,50.90
2023-04-02T04:42:04.278Z,50.81
2023-04-02T04:43:04.275Z,50.83
2023-04-02T04:44:04.272Z,50.61
2023-04-02T04:45:04.319Z,50.93
2023-04-02T04:46:04.270Z,50.93
2023-04-02T04:47:04.270Z,50.73
2023-04-02T04:48:04.280Z,51.02
2023-04-02T04:49:04.252Z,50.54
2023-04-02T04:50:04.248Z,50.93
2023-04-02T04:51:04.255Z,51.12
2023-04-02T04:52:04.235Z,51.21
2023-04-02T04:53:04.233Z,50.45
2023-04-02T04:54:04.241Z,51.12
2023-04-02T04:55:04.224Z,50.45
2023-04-02T04:56:18.177Z,50.45
2023-04-02T04:57:04.244Z,50.54
2023-04-02T04:58:04.337Z,50.93
2023-04-02T04:59:04.241Z,50.93
2023-04-02T05:00:04.226Z,50.54
2023-04-02T05:01:04.232Z,50.63
2023-04-02T05:02:04.215Z,50.63
2023-04-02T05:03:04.238Z,50.63
2023-04-02T05:04:04.232Z,50.73
2023-04-02T05:05:04.251Z,50.73
2023-04-02T05:06:04.182Z,50.63
2023-04-02T05:07:04.199Z,50.63
2023-04-02T05:08:04.179Z,50.73
2023-04-02T05:09:04.198Z,50.63
2023-04-02T05:10:04.159Z,50.25
2023-04-02T05:11:04.150Z,50.45
2023-04-02T05:12:04.174Z,50.45
2023-04-02T05:13:04.161Z,50.15
2023-04-02T05:14:04.163Z,50.25
2023-04-02T05:15:04.146Z,50.25
2023-04-02T05:16:04.209Z,50.35
2023-04-02T05:17:04.161Z,50.35
2023-04-02T05:18:04.229Z,50.45
2023-04-02T05:19:04.143Z,50.06
2023-04-02T05:20:04.123Z,50.35
2023-04-02T05:21:04.116Z,50.15
2023-04-02T05:22:04.123Z,50.25
2023-04-02T05:23:04.133Z,50.25
2023-04-02T05:24:04.107Z,50.25
2023-04-02T05:25:04.091Z,50.25
2023-04-02T05:26:04.103Z,50.15
2023-04-02T05:27:04.085Z,50.06
2023-04-02T05:28:04.111Z,50.45
2023-04-02T05:29:04.103Z,50.06
2023-04-02T05:30:04.078Z,50.06
2023-04-02T05:31:04.127Z,50.45
2023-04-02T05:32:04.079Z,50.06
2023-04-02T05:33:04.095Z,50.15
2023-04-02T05:34:04.078Z,49.96
2023-04-02T05:35:04.082Z,50.15
2023-04-02T05:36:04.151Z,49.87
2023-04-02T05:37:05.786Z,50.06
2023-04-02T05:38:04.061Z,50.15
2023-04-02T05:39:04.053Z,50.35
2023-04-02T05:40:04.036Z,50.15
2023-04-02T05:41:04.039Z,49.87
2023-04-02T05:42:04.041Z,50.15
2023-04-02T05:43:04.044Z,50.45
2023-04-02T05:44:04.024Z,50.45
2023-04-02T05:45:04.026Z,50.45
2023-04-02T05:46:04.010Z,50.45
2023-04-02T05:47:04.052Z,49.58
2023-04-02T05:48:04.079Z,49.77
2023-04-02T05:49:04.006Z,49.96
2023-04-02T05:50:03.990Z,49.99
2023-04-02T05:51:04.050Z,49.96
2023-04-02T05:52:04.014Z,50.18
2023-04-02T05:53:04.020Z,50.27
2023-04-02T05:54:03.995Z,49.58
2023-04-02T05:55:03.979Z,50.09
2023-04-02T05:56:04.011Z,49.60
2023-04-02T05:57:04.010Z,50.06
2023-04-02T05:58:29.493Z,49.60
2023-04-02T05:59:03.967Z,49.79
2023-04-02T06:00:03.957Z,49.79
2023-04-02T06:01:03.973Z,49.99
2023-04-02T06:02:03.978Z,49.89
2023-04-02T06:03:04.057Z,49.99
2023-04-02T06:04:03.997Z,50.09
2023-04-02T06:05:03.932Z,49.79
2023-04-02T06:06:03.945Z,49.79
2023-04-02T06:07:03.990Z,49.79
2023-04-02T06:08:03.962Z,49.51
2023-04-02T06:09:03.912Z,49.99
2023-04-02T06:10:03.935Z,49.60
2023-04-02T06:11:03.922Z,49.60
2023-04-02T06:12:03.924Z,49.51
2023-04-02T06:13:03.934Z,49.60
2023-04-02T06:14:03.904Z,49.51
2023-04-02T06:15:03.901Z,49.70
2023-04-02T06:16:03.934Z,49.38
2023-04-02T06:17:03.948Z,49.79
2023-04-02T06:18:03.977Z,49.70
2023-04-02T06:19:03.881Z,49.79
2023-04-02T06:20:03.894Z,49.41
2023-04-02T06:21:03.897Z,49.51
2023-04-02T06:22:03.866Z,49.60
2023-04-02T06:23:03.904Z,49.51
2023-04-02T06:24:03.912Z,49.60
2023-04-02T06:25:03.856Z,49.70
2023-04-02T06:26:03.854Z,49.79
2023-04-02T06:27:03.876Z,49.70
2023-04-02T06:28:03.841Z,49.22
2023-04-02T06:29:03.893Z,49.41
2023-04-02T06:30:03.855Z,49.22
2023-04-02T06:31:03.891Z,49.32
2023-04-02T06:32:03.833Z,49.12
2023-04-02T06:33:03.908Z,49.41
2023-04-02T06:34:03.855Z,49.51
2023-04-02T06:35:03.817Z,49.41
2023-04-02T06:36:03.848Z,49.51
2023-04-02T06:37:03.835Z,49.32
2023-04-02T06:38:03.827Z,49.41
2023-04-02T06:39:03.842Z,49.12
2023-04-02T06:40:03.830Z,49.12
2023-04-02T06:41:03.807Z,49.41
2023-04-02T06:44:36.329Z,49.51
2023-04-02T06:45:36.511Z,49.41
2023-04-02T06:46:36.367Z,49.22
2023-04-02T06:47:36.372Z,49.41
2023-04-02T06:48:36.304Z,49.32
2023-04-02T06:49:36.297Z,49.12
2023-04-02T06:50:36.291Z,49.32
2023-04-02T06:51:36.311Z,49.22
2023-04-02T06:52:36.306Z,49.32
2023-04-02T06:53:36.291Z,48.93
2023-04-02T06:54:36.305Z,49.22
2023-04-02T06:55:36.430Z,49.22
2023-04-02T06:56:36.328Z,49.22
2023-04-02T06:57:36.304Z,49.32
2023-04-02T06:58:36.275Z,49.22
2023-04-02T06:59:36.266Z,49.12
2023-04-02T07:00:36.249Z,49.22
2023-04-02T07:01:36.295Z,49.12
2023-04-02T07:02:36.301Z,49.02
2023-04-02T07:03:36.271Z,49.12
2023-04-02T07:04:36.331Z,49.02
2023-04-02T07:05:36.602Z,48.83
2023-04-02T07:06:36.232Z,48.93
2023-04-02T07:07:36.231Z,48.93
2023-04-02T07:08:36.239Z,48.83
2023-04-02T07:09:36.224Z,49.05
2023-04-02T07:10:36.264Z,48.76
2023-04-02T07:11:36.213Z,48.93
2023-04-02T07:12:36.200Z,48.83
2023-04-02T07:13:36.221Z,48.54
2023-04-02T07:14:36.198Z,48.86
2023-04-02T07:15:36.516Z,48.83
2023-04-02T07:16:36.200Z,48.95
2023-04-02T07:17:36.220Z,48.93
2023-04-02T07:18:36.194Z,48.66
2023-04-02T07:19:36.178Z,49.05
2023-04-02T07:20:36.182Z,48.86
2023-04-02T07:21:36.171Z,48.76
2023-04-02T07:22:36.197Z,48.47
2023-04-02T07:23:36.170Z,48.66
2023-04-02T07:24:36.173Z,48.57
2023-04-02T07:25:36.479Z,48.57
2023-04-02T07:26:36.246Z,48.95
2023-04-02T07:27:36.166Z,48.57
2023-04-02T07:28:36.160Z,48.66
2023-04-02T07:29:36.169Z,48.76
2023-04-02T07:30:36.138Z,48.57
2023-04-02T07:31:36.296Z,48.76
2023-04-02T07:32:36.223Z,48.76
2023-04-02T07:33:36.177Z,48.57
2023-04-02T07:34:36.221Z,48.57
2023-04-02T07:35:36.268Z,48.47
2023-04-02T07:36:36.122Z,48.57
2023-04-02T07:37:36.118Z,48.57
2023-04-02T07:38:36.146Z,48.66
2023-04-02T07:39:37.752Z,48.47
2023-04-02T07:40:36.123Z,48.28
2023-04-02T07:41:36.127Z,48.47
2023-04-02T07:42:36.104Z,48.38
2023-04-02T07:43:36.144Z,48.47
2023-04-02T07:44:36.119Z,48.28
2023-04-02T07:45:36.406Z,48.28
2023-04-02T07:46:36.115Z,48.57
2023-04-02T07:47:36.131Z,48.38
2023-04-02T07:48:36.105Z,48.38
2023-04-02T07:49:36.076Z,48.38
2023-04-02T07:50:36.129Z,48.38
2023-04-02T07:51:36.076Z,48.38
2023-04-02T07:52:36.246Z,48.28
2023-04-02T07:53:36.073Z,48.38
2023-04-02T07:54:36.080Z,48.28
2023-04-02T07:55:36.374Z,48.28
2023-04-02T07:56:36.042Z,48.28
2023-04-02T07:57:36.103Z,48.28
2023-04-02T07:58:36.081Z,48.28
2023-04-02T07:59:36.042Z,48.18
2023-04-02T08:00:36.074Z,48.08
2023-04-02T08:01:36.048Z,48.18
2023-04-02T08:02:36.113Z,48.18
2023-04-02T08:03:36.182Z,48.18
2023-04-02T08:04:36.018Z,48.18
2023-04-02T08:05:36.273Z,47.99
2023-04-02T08:06:36.026Z,48.11
2023-04-02T08:07:36.003Z,48.11
2023-04-02T08:08:36.030Z,48.21
2023-04-02T08:09:36.031Z,48.08
2023-04-02T08:10:35.995Z,48.11
2023-04-02T08:11:35.995Z,48.21
2023-04-02T08:12:35.993Z,48.01
2023-04-02T08:13:36.047Z,48.30
2023-04-02T08:14:36.036Z,48.01
2023-04-02T08:15:36.251Z,48.11
2023-04-02T08:16:36.028Z,48.01
2023-04-02T08:17:36.041Z,47.92
2023-04-02T08:18:35.978Z,48.01
2023-04-02T08:19:44.618Z,48.01
2023-04-02T08:20:35.970Z,48.01
2023-04-02T08:21:35.963Z,47.82
2023-04-02T08:22:35.966Z,47.92
2023-04-02T08:23:35.976Z,47.82
2023-04-02T08:24:35.971Z,47.72
2023-04-02T08:25:36.182Z,47.92
2023-04-02T08:26:35.939Z,47.72
2023-04-02T08:27:35.960Z,47.82
2023-04-02T08:28:35.944Z,47.63
2023-04-02T08:29:35.944Z,47.82
2023-04-02T08:30:35.983Z,47.63
2023-04-02T08:31:35.931Z,47.72
2023-04-02T08:32:35.970Z,47.63
2023-04-02T08:33:35.938Z,47.72
2023-04-02T08:34:35.935Z,47.63
2023-04-02T08:35:36.423Z,47.55
2023-04-02T08:36:35.933Z,47.72
2023-04-02T08:37:35.915Z,47.55
2023-04-02T08:38:35.905Z,47.55
2023-04-02T08:39:35.909Z,47.45
2023-04-02T08:40:35.922Z,47.45
2023-04-02T08:41:35.895Z,47.75
2023-04-02T08:42:35.946Z,47.55
2023-04-02T08:43:35.912Z,47.55
2023-04-02T08:44:35.953Z,47.45
2023-04-02T08:45:35.891Z,47.45
2023-04-02T08:46:35.928Z,47.45
2023-04-02T08:47:35.905Z,47.55
2023-04-02T08:48:35.874Z,47.55
2023-04-02T08:49:35.878Z,47.36
2023-04-02T08:50:35.896Z,47.27
2023-04-02T08:51:35.897Z,47.36
2023-04-02T08:52:35.869Z,47.45
2023-04-02T08:53:36.556Z,47.36
2023-04-02T08:54:35.907Z,47.27
2023-04-02T08:55:36.218Z,47.45
2023-04-02T08:56:35.864Z,47.45
2023-04-02T08:57:35.893Z,47.36
2023-04-02T08:58:35.858Z,47.07
2023-04-02T08:59:35.842Z,47.27
2023-04-02T09:00:37.819Z,47.17
2023-04-02T09:01:35.883Z,47.36
2023-04-02T09:02:35.975Z,46.97
2023-04-02T09:03:35.849Z,47.27
2023-04-02T09:04:35.850Z,47.19
2023-04-02T09:05:35.990Z,47.17
2023-04-02T09:06:35.841Z,47.09
2023-04-02T09:07:35.819Z,47.09
2023-04-02T09:08:35.838Z,47.09
2023-04-02T09:09:35.833Z,47.07
2023-04-02T09:10:35.827Z,47.00
2023-04-02T09:11:35.805Z,47.00
2023-04-02T09:12:35.812Z,47.09
2023-04-02T09:13:35.821Z,46.90
2023-04-02T09:14:35.822Z,46.90
2023-04-02T09:15:36.074Z,46.71
2023-04-02T09:16:35.799Z,46.90
2023-04-02T09:17:50.444Z,46.61
2023-04-02T09:18:35.832Z,46.81
2023-04-02T09:19:35.804Z,47.00
2023-04-02T09:20:35.807Z,46.90
2023-04-02T09:21:35.796Z,46.81
2023-04-02T09:22:35.840Z,46.81
2023-04-02T09:23:35.820Z,46.81
2023-04-02T09:24:35.792Z,46.71
2023-04-02T09:25:35.976Z,46.61
2023-04-02T09:26:35.780Z,46.81
2023-04-02T09:27:35.773Z,46.71
2023-04-02T09:28:35.785Z,46.71
2023-04-02T09:29:35.833Z,46.71
2023-04-02T09:30:35.771Z,46.81
2023-04-02T09:31:35.782Z,46.51
2023-04-02T09:32:35.812Z,46.71
2023-04-02T09:33:35.772Z,46.71
2023-04-02T09:34:35.772Z,46.90
2023-04-02T09:35:35.796Z,46.61
2023-04-02T09:36:35.770Z,46.71
2023-04-02T09:37:35.751Z,46.90
2023-04-02T09:38:35.743Z,46.90
2023-04-02T09:39:35.748Z,46.81
2023-04-02T09:40:35.774Z,46.61
2023-04-02T09:41:36.882Z,46.51
2023-04-02T09:42:35.742Z,46.61
2023-04-02T09:43:35.766Z,46.42
2023-04-02T09:44:35.743Z,46.51
2023-04-02T09:45:35.984Z,46.51
2023-04-02T09:46:35.781Z,46.44
2023-04-02T09:47:37.091Z,46.42
2023-04-02T09:48:35.741Z,46.44
2023-04-02T09:49:35.719Z,46.54
2023-04-02T09:50:35.746Z,46.44
2023-04-02T09:51:35.708Z,46.25
2023-04-02T09:52:35.705Z,46.34
2023-04-02T09:53:35.735Z,46.44
2023-04-02T09:54:35.719Z,46.15
2023-04-02T09:55:35.865Z,46.15
2023-04-02T09:56:35.700Z,46.54
2023-04-02T09:57:35.699Z,46.73
2023-04-02T09:58:35.710Z,46.92
2023-04-02T09:59:35.737Z,46.73
2023-04-02T10:00:35.702Z,46.34
2023-04-02T10:01:35.773Z,46.34
2023-04-02T10:13:26.409Z,45.86
2023-04-02T10:14:26.394Z,45.86
2023-04-02T10:15:26.373Z,45.57
2023-04-02T10:16:27.040Z,45.76
2023-04-02T10:17:26.405Z,45.57
2023-04-02T10:18:26.350Z,45.79
2023-04-02T10:19:26.396Z,45.67
2023-04-02T10:20:26.378Z,45.69
2023-04-02T10:21:26.365Z,45.59
2023-04-02T10:22:26.336Z,45.59
2023-04-02T10:23:26.343Z,45.79
2023-04-02T10:24:26.342Z,45.79
2023-04-02T10:25:26.369Z,45.79
2023-04-02T10:26:26.330Z,45.59
2023-04-02T10:27:26.319Z,45.91
2023-04-02T10:28:26.320Z,45.91
2023-04-02T10:29:26.345Z,45.91
2023-04-02T10:30:26.361Z,46.00
2023-04-02T10:31:26.432Z,45.81
2023-04-02T10:32:26.404Z,45.91
2023-04-02T10:33:26.361Z,46.00
2023-04-02T10:34:26.324Z,45.64
2023-04-02T10:35:26.413Z,45.91
2023-04-02T10:36:26.322Z,45.72
2023-04-02T10:37:26.310Z,45.64
2023-04-02T10:38:26.320Z,45.83
2023-04-02T10:39:26.333Z,45.74
2023-04-02T10:40:26.327Z,45.83
2023-04-02T10:41:26.307Z,46.42
2023-04-02T10:42:26.324Z,46.42
2023-04-02T10:43:26.317Z,46.42
2023-04-02T10:44:26.329Z,46.32
2023-04-02T10:45:26.347Z,45.64
2023-04-02T10:46:26.343Z,45.93
2023-04-02T10:47:26.348Z,45.93
2023-04-02T10:48:26.307Z,45.74
2023-04-02T10:49:26.359Z,45.74
2023-04-02T10:50:26.298Z,45.45
2023-04-02T10:51:26.298Z,45.74
2023-04-02T10:52:26.291Z,45.54
2023-04-02T10:53:26.300Z,45.45
2023-04-02T10:54:26.299Z,45.83
2023-04-02T10:55:26.297Z,45.74
2023-04-02T10:56:26.299Z,45.83
2023-04-02T10:57:26.417Z,45.74
2023-04-02T10:58:26.328Z,45.74
2023-04-02T10:59:26.314Z,45.74
2023-04-02T11:00:26.292Z,45.54
2023-04-02T11:01:26.332Z,45.54
2023-04-02T11:02:26.350Z,45.64
2023-04-02T11:03:26.356Z,45.74
2023-04-02T11:04:26.285Z,45.74
2023-04-02T11:05:26.298Z,45.64
2023-04-02T11:06:26.279Z,45.54
2023-04-02T11:07:26.283Z,45.25
2023-04-02T11:08:26.305Z,45.64
2023-04-02T11:09:26.280Z,45.74
2023-04-02T11:10:26.272Z,45.54
2023-04-02T11:11:26.291Z,45.54
2023-04-02T11:12:26.280Z,45.45
2023-04-02T11:13:26.291Z,45.25
2023-04-02T11:14:26.260Z,45.54
2023-04-02T11:15:26.275Z,45.64
2023-04-02T11:16:26.322Z,45.54
2023-04-02T11:17:26.311Z,45.54
2023-04-02T11:18:26.271Z,45.45
2023-04-02T11:19:26.271Z,45.25
2023-04-02T11:20:26.267Z,45.54
2023-04-02T11:21:26.257Z,45.35
2023-04-02T11:22:26.274Z,45.54
2023-04-02T11:23:26.284Z,45.35
2023-04-02T11:24:26.263Z,45.25
2023-04-02T11:25:26.263Z,45.45
2023-04-02T11:26:26.261Z,45.45
2023-04-02T11:27:26.258Z,45.35
2023-04-02T11:28:26.270Z,45.54
2023-04-02T11:29:26.268Z,45.16
2023-04-02T11:30:26.303Z,45.64
2023-04-02T11:31:26.266Z,45.54
2023-04-02T11:32:26.267Z,45.66
2023-04-02T11:33:35.754Z,45.76
2023-04-02T11:34:26.244Z,45.57
2023-04-02T11:35:26.256Z,45.57
2023-04-02T11:36:26.246Z,45.47
2023-04-02T11:37:26.265Z,45.30
2023-04-02T11:38:26.278Z,45.59
2023-04-02T11:39:26.259Z,45.49
2023-04-02T11:40:26.253Z,45.49
2023-04-02T11:41:26.245Z,45.49
2023-04-02T11:42:26.273Z,45.59
2023-04-02T11:43:26.260Z,45.13
2023-04-02T11:44:26.290Z,45.61
2023-04-02T11:45:26.318Z,45.61
2023-04-02T11:46:26.358Z,45.44
2023-04-02T11:47:26.309Z,45.44
2023-04-02T11:48:26.245Z,45.34
2023-04-02T11:49:26.258Z,45.56
2023-04-02T11:50:26.257Z,45.47
2023-04-02T11:51:26.248Z,45.47
2023-04-02T11:52:26.280Z,45.37
2023-04-02T11:53:26.269Z,45.48
2023-04-02T11:54:26.281Z,45.10
2023-04-02T11:55:26.269Z,44.73
2023-04-02T11:56:26.254Z,44.64
2023-04-02T11:57:26.345Z,44.54
2023-04-02T11:58:26.250Z,44.95
2023-04-02T11:59:26.288Z,44.85
2023-04-02T12:00:26.292Z,44.68
2023-04-02T12:01:26.277Z,44.78
2023-04-02T12:02:26.363Z,44.38
2023-04-02T12:03:26.319Z,44.51
2023-04-02T12:04:26.294Z,44.21
2023-04-02T12:05:26.410Z,44.12
2023-04-02T12:06:26.297Z,44.12
2023-04-02T12:07:26.289Z,44.43
2023-04-02T12:08:26.313Z,43.75
2023-04-02T12:09:26.314Z,43.67
2023-04-02T12:10:26.315Z,43.67
2023-04-02T12:11:26.293Z,43.38
2023-04-02T12:12:26.297Z,43.21
2023-04-02T12:13:26.301Z,43.21
2023-04-02T12:14:26.313Z,43.21
2023-04-02T12:15:26.328Z,43.04
2023-04-02T12:16:26.345Z,42.84
2023-04-02T12:17:26.337Z,42.94
2023-04-02T12:18:26.317Z,42.66
2023-04-02T12:19:26.337Z,42.66
2023-04-02T12:20:26.342Z,42.40
2023-04-02T12:21:26.346Z,42.10
2023-04-02T12:22:26.351Z,42.22
2023-04-02T12:23:26.325Z,42.22
2023-04-02T12:24:26.354Z,41.95
2023-04-02T12:25:26.336Z,41.75
2023-04-02T12:26:26.345Z,41.27
2023-04-02T12:27:26.380Z,41.67
2023-04-02T12:28:26.364Z,41.28
2023-04-02T12:29:26.455Z,41.31
2023-04-02T12:30:26.352Z,41.31
2023-04-02T12:31:26.464Z,40.82
2023-04-02T12:32:27.815Z,40.84
2023-04-02T12:33:26.433Z,40.64
2023-04-02T12:34:26.382Z,40.66
2023-04-02T12:35:26.420Z,40.56
2023-04-02T12:36:26.393Z,40.29
2023-04-02T12:37:26.443Z,40.27
2023-04-02T12:38:26.421Z,40.27
2023-04-02T12:39:28.260Z,40.35
2023-04-02T12:40:26.445Z,40.55
2023-04-02T12:41:26.427Z,40.17
2023-04-02T12:42:26.464Z,40.08
2023-04-02T12:43:26.481Z,39.70
2023-04-02T12:44:26.442Z,40.11
2023-04-02T12:45:29.175Z,39.43
2023-04-02T12:46:26.474Z,39.53
2023-04-02T12:47:26.461Z,39.43
2023-04-02T12:48:26.477Z,39.45
2023-04-02T12:49:26.447Z,39.35
2023-04-02T12:50:26.494Z,39.35
2023-04-02T12:51:28.363Z,39.45
2023-04-02T12:52:26.461Z,39.33
2023-04-02T12:53:26.510Z,39.53
2023-04-02T12:54:26.472Z,39.45
2023-04-02T12:55:26.486Z,39.35
2023-04-02T12:56:26.523Z,39.35
2023-04-02T12:57:26.563Z,39.06
2023-04-02T12:58:26.494Z,38.78
2023-04-02T12:59:26.531Z,38.78
2023-04-02T13:00:26.534Z,38.68
2023-04-02T13:01:26.573Z,38.68
2023-04-02T13:02:26.581Z,38.60
2023-04-02T13:03:28.542Z,38.39
2023-04-02T13:04:26.541Z,38.59
2023-04-02T13:05:26.549Z,38.96
2023-04-02T13:06:26.554Z,39.33
2023-04-02T13:07:26.650Z,39.31
2023-04-02T13:08:26.566Z,39.80
2023-04-02T13:09:28.659Z,39.69
2023-04-02T13:10:26.573Z,39.76
2023-04-02T13:11:26.567Z,39.86
2023-04-02T13:12:26.596Z,39.59
2023-04-02T13:13:26.579Z,39.57
2023-04-02T13:14:26.581Z,39.29
2023-04-02T13:15:28.153Z,38.71
2023-04-02T13:16:26.619Z,38.90
2023-04-02T13:17:26.637Z,38.82
2023-04-02T13:18:26.631Z,38.63
2023-04-02T13:19:26.625Z,38.65
2023-04-02T13:20:26.625Z,38.65
2023-04-02T13:21:28.147Z,38.55
2023-04-02T13:22:26.638Z,38.37
2023-04-02T13:23:26.644Z,38.37
2023-04-02T13:24:26.638Z,38.10
2023-04-02T13:25:26.668Z,38.29
2023-04-02T13:26:26.663Z,38.20
2023-04-02T13:27:26.679Z,37.90
2023-04-02T13:28:26.680Z,38.00
2023-04-02T13:29:26.674Z,38.20
2023-04-02T13:30:26.689Z,38.12
2023-04-02T13:31:26.704Z,37.92
2023-04-02T13:32:26.711Z,38.02
2023-04-02T13:33:26.734Z,37.94
2023-04-02T13:34:26.717Z,38.04
2023-04-02T13:35:26.752Z,37.94
2023-04-02T13:36:26.706Z,38.04
2023-04-02T13:37:26.754Z,37.84
2023-04-02T13:38:26.786Z,37.76
2023-04-02T13:39:26.711Z,37.74
2023-04-02T13:40:26.732Z,38.12
2023-04-02T13:41:26.811Z,38.21
2023-04-02T13:42:26.729Z,38.59
2023-04-02T13:43:26.733Z,38.29
2023-04-02T13:44:26.744Z,38.28
2023-04-02T13:45:26.759Z,38.28
2023-04-02T13:46:26.743Z,38.47
2023-04-02T13:47:26.838Z,38.55
2023-04-02T13:48:26.800Z,38.55
2023-04-02T13:49:26.762Z,38.75
2023-04-02T13:50:26.773Z,38.53
2023-04-02T13:51:26.803Z,38.51
2023-04-02T13:52:26.781Z,38.51
2023-04-02T13:53:26.798Z,38.89
2023-04-02T13:54:26.799Z,38.98
2023-04-02T13:55:26.815Z,38.69
2023-04-02T13:56:26.809Z,38.49
2023-04-02T13:57:26.858Z,38.59
2023-04-02T13:58:26.800Z,38.49
2023-04-02T13:59:26.828Z,38.79
2023-04-02T14:00:26.804Z,38.40
2023-04-02T14:01:26.898Z,38.67
2023-04-02T14:02:26.838Z,39.06
2023-04-02T14:03:26.819Z,38.45
2023-04-02T14:04:26.889Z,38.73
2023-04-02T14:05:26.827Z,39.31
2023-04-02T14:06:26.841Z,39.39
2023-04-02T14:07:26.833Z,39.29
2023-04-02T14:08:26.844Z,39.20
2023-04-02T14:09:26.882Z,38.73
2023-04-02T14:10:26.844Z,39.12
2023-04-02T14:11:26.903Z,38.34
2023-04-02T14:12:26.884Z,38.26
2023-04-02T14:13:26.890Z,38.57
2023-04-02T14:14:26.888Z,38.38
2023-04-02T14:15:26.869Z,38.20
2023-04-02T14:16:26.940Z,38.01
2023-04-02T14:17:26.881Z,38.22
2023-04-02T14:18:26.876Z,38.22
2023-04-02T14:19:26.924Z,38.02
2023-04-02T14:20:26.904Z,37.85
2023-04-02T14:21:26.887Z,37.85
2023-04-02T14:22:26.891Z,37.47
2023-04-02T14:23:26.919Z,37.95
2023-04-02T14:24:26.906Z,38.12
2023-04-02T14:25:26.906Z,38.20
2023-04-02T14:26:26.899Z,38.20
2023-04-02T14:27:26.906Z,38.32
2023-04-02T14:28:26.914Z,38.04
2023-04-02T14:29:28.865Z,37.85
2023-04-02T14:30:26.929Z,37.75
2023-04-02T14:31:26.997Z,37.75
2023-04-02T14:32:26.954Z,38.12
2023-04-02T14:33:26.942Z,38.02
2023-04-02T14:34:26.961Z,38.30
2023-04-02T14:35:27.083Z,38.18
2023-04-02T14:36:26.955Z,38.35
2023-04-02T14:37:26.964Z,38.55
2023-04-02T14:38:26.955Z,38.45
2023-04-02T14:39:26.974Z,38.48
2023-04-02T14:40:26.996Z,38.18
2023-04-02T14:41:26.977Z,37.99
2023-04-02T14:42:26.975Z,37.79
2023-04-02T14:43:26.979Z,38.28
2023-04-02T14:44:26.995Z,37.99
2023-04-02T14:45:27.038Z,38.16
2023-04-02T14:46:27.001Z,38.55
2023-04-02T14:47:27.017Z,38.43
2023-04-02T14:48:27.013Z,38.53
2023-04-02T14:49:26.990Z,38.71
2023-04-02T14:50:27.016Z,38.40
2023-04-02T14:51:27.007Z,38.59
2023-04-02T14:52:27.021Z,38.77
2023-04-02T14:53:27.012Z,38.95
2023-04-02T14:54:27.032Z,39.04
2023-04-02T14:55:27.032Z,39.14
2023-04-02T14:56:27.047Z,39.22
2023-04-02T14:57:27.062Z,39.03
2023-04-02T14:58:27.017Z,39.31
2023-04-02T14:59:27.014Z,39.12
2023-04-02T15:00:27.021Z,39.29
2023-04-02T15:01:27.112Z,39.12
2023-04-02T15:02:27.087Z,39.12
2023-04-02T15:03:27.149Z,39.22
2023-04-02T15:04:27.038Z,38.93
2023-04-02T15:05:27.043Z,38.65
2023-04-02T15:06:27.046Z,38.85
2023-04-02T15:07:27.029Z,38.57
2023-04-02T15:08:27.043Z,38.28
2023-04-02T15:09:27.039Z,38.48
2023-04-02T15:10:27.142Z,38.56
2023-04-02T15:11:27.045Z,38.75
2023-04-02T15:12:27.049Z,39.12
2023-04-02T15:13:27.048Z,39.12
2023-04-02T15:14:27.048Z,39.49
2023-04-02T15:15:39.041Z,39.49
2023-04-02T15:16:27.166Z,39.47
2023-04-02T15:17:27.146Z,39.84
2023-04-02T15:18:27.105Z,39.94
2023-04-02T15:19:27.101Z,39.55
2023-04-02T15:20:27.135Z,40.01
2023-04-02T15:21:27.081Z,40.21
2023-04-02T15:22:27.101Z,39.92
2023-04-02T15:23:27.059Z,40.09
2023-04-02T15:24:27.077Z,40.09
2023-04-02T15:25:27.080Z,40.09
2023-04-02T15:26:27.069Z,40.29
2023-04-02T15:27:27.091Z,40.56
2023-04-02T15:28:27.063Z,40.17
2023-04-02T15:29:29.601Z,40.17
2023-04-02T15:30:27.060Z,40.46
2023-04-02T15:31:27.099Z,40.36
2023-04-02T15:32:27.093Z,40.05
2023-04-02T15:33:27.089Z,40.92
2023-04-02T15:34:27.083Z,40.64
2023-04-02T15:35:27.814Z,40.44
2023-04-02T15:36:27.092Z,40.64
2023-04-02T15:37:27.104Z,40.83
2023-04-02T15:38:27.082Z,41.00
2023-04-02T15:39:27.074Z,40.81
2023-04-02T15:40:27.076Z,40.81
2023-04-02T15:41:27.084Z,41.10
2023-04-02T15:42:27.125Z,41.10
2023-04-02T15:43:27.093Z,40.89
2023-04-02T15:44:27.088Z,41.47
2023-04-02T15:45:27.117Z,41.47
2023-04-02T15:46:27.109Z,41.17
2023-04-02T15:47:27.138Z,41.35
2023-04-02T15:48:27.087Z,41.06
2023-04-02T15:49:27.125Z,41.55
2023-04-02T15:50:27.095Z,40.86
2023-04-02T15:51:27.106Z,41.45
2023-04-02T15:52:27.107Z,41.06
2023-04-02T15:53:27.119Z,41.06
2023-04-02T15:54:27.082Z,41.04
2023-04-02T15:55:27.083Z,41.24
2023-04-02T15:56:27.094Z,41.24
2023-04-02T15:57:27.130Z,41.24
2023-04-02T15:58:27.084Z,41.14
2023-04-02T15:59:27.110Z,41.41
2023-04-02T16:00:27.096Z,41.33
2023-04-02T16:12:33.815Z,41.77
2023-04-02T16:13:33.761Z,41.48
2023-04-02T16:14:33.754Z,41.67
2023-04-02T16:15:33.777Z,41.94
2023-04-02T16:16:33.801Z,41.85
2023-04-02T16:17:33.950Z,42.14
2023-04-02T16:18:33.737Z,41.85
2023-04-02T16:19:33.730Z,41.75
2023-04-02T16:20:33.924Z,41.85
2023-04-02T16:21:33.745Z,41.85
2023-04-02T16:22:33.745Z,41.66
2023-04-02T16:23:33.746Z,41.85
2023-04-02T16:24:33.752Z,41.83
2023-04-02T16:25:33.717Z,41.73
2023-04-02T16:26:33.743Z,42.02
2023-04-02T16:27:33.711Z,41.83
2023-04-02T16:28:33.729Z,41.93
2023-04-02T16:29:47.104Z,42.21
2023-04-02T16:30:33.852Z,42.12
2023-04-02T16:31:33.860Z,42.21
2023-04-02T16:32:33.708Z,42.12
2023-04-02T16:33:33.732Z,42.31
2023-04-02T16:34:33.727Z,42.21
2023-04-02T16:36:33.727Z,42.39
2023-04-02T16:37:33.703Z,42.48
2023-04-02T16:38:33.705Z,42.58
2023-04-02T16:39:33.702Z,42.48
2023-04-02T16:40:33.946Z,42.68
2023-04-02T16:41:33.682Z,42.58
2023-04-02T16:42:33.704Z,42.39
2023-04-02T16:43:33.702Z,42.58
2023-04-02T16:44:33.699Z,42.58
2023-04-02T16:45:33.699Z,42.48
2023-04-02T16:46:39.903Z,42.48
2023-04-02T16:47:33.740Z,42.58
2023-04-02T16:48:33.825Z,42.75
2023-04-02T16:49:33.685Z,42.56
2023-04-02T16:50:34.015Z,42.66
2023-04-02T16:51:33.679Z,42.85
2023-04-02T16:52:33.687Z,42.75
2023-04-02T16:53:33.652Z,42.75
2023-04-02T16:54:33.656Z,42.85
2023-04-02T16:55:33.664Z,42.94
2023-04-02T16:56:33.658Z,42.94
2023-04-02T16:57:33.692Z,42.75
2023-04-02T16:58:33.648Z,42.66
2023-04-02T16:59:33.633Z,43.24
2023-04-02T17:00:33.859Z,42.94
2023-04-02T17:01:33.682Z,42.75
2023-04-02T17:02:33.698Z,42.94
2023-04-02T17:03:33.747Z,42.94
2023-04-02T17:04:33.636Z,43.04
2023-04-02T17:05:33.664Z,42.94
2023-04-02T17:06:33.621Z,43.02
2023-04-02T17:07:33.649Z,43.02
2023-04-02T17:08:33.642Z,43.04
2023-04-02T17:09:33.612Z,43.02
2023-04-02T17:10:33.634Z,43.12
2023-04-02T17:11:33.609Z,43.02
2023-04-02T17:12:33.618Z,43.02
2023-04-02T17:13:33.628Z,43.02
2023-04-02T17:14:33.602Z,43.31
2023-04-02T17:15:33.594Z,43.31
2023-04-02T17:16:33.685Z,43.41